Time;durP1;ratioP1;P1;durP2;ratioP2;P2;SDS_P1;SDS_P2;PMS_P1;PMS_P2;Temp;Humidity;BMP_temperature;BMP_pressure;BME280_temperature;BME280_humidity;BME280_pressure;Samples;Min_cycle;Max_cycle;Signal;HPM_P1;HPM_P2
2023/12/11 00:01:55;;;;;;;1.50;1.05;;;;;;;20.73;39.67;99568.75;5028441;28;20036;-71
2023/12/11 00:04:21;;;;;;;3.00;1.10;;;;;;;20.81;39.54;99579.84;5085347;28;20039;-71
2023/12/11 00:06:46;;;;;;;1.77;1.10;;;;;;;20.81;39.64;99584.34;5028244;28;20105;-72
2023/12/11 00:09:13;;;;;;;1.95;1.10;;;;;;;20.77;39.39;99583.16;5081178;28;20471;-71
2023/12/11 00:11:38;;;;;;;2.45;0.82;;;;;;;20.74;39.51;99568.53;5032799;28;20059;-71
2023/12/11 00:14:04;;;;;;;1.15;0.75;;;;;;;20.78;39.41;99577.66;5085432;28;20035;-71
2023/12/11 00:16:29;;;;;;;1.55;0.85;;;;;;;20.74;39.65;99576.47;5033170;28;20509;-71
2023/12/11 00:18:56;;;;;;;2.10;1.00;;;;;;;20.79;39.61;99579.28;5081628;28;20147;-71
2023/12/11 00:21:22;;;;;;;1.45;1.00;;;;;;;20.78;39.56;99580.28;5032069;28;20538;-71
2023/12/11 00:23:47;;;;;;;1.48;0.80;;;;;;;20.73;39.53;99576.69;5073476;28;20040;-71
2023/12/11 00:26:13;;;;;;;1.85;1.13;;;;;;;20.73;39.49;99590.72;5030678;28;20035;-71
2023/12/11 00:28:38;;;;;;;2.17;1.17;;;;;;;20.71;39.51;99568.16;5074831;28;20032;-71
2023/12/11 00:31:07;;;;;;;1.67;1.02;;;;;;;20.69;39.63;99567.56;5013863;28;20036;-71
2023/12/11 00:33:34;;;;;;;1.10;1.00;;;;;;;20.75;39.52;99582.56;5083851;28;20031;-71
2023/12/11 00:35:59;;;;;;;1.67;0.82;;;;;;;20.74;39.54;99571.19;5021681;28;20148;-71
2023/12/11 00:38:25;;;;;;;1.45;0.98;;;;;;;20.73;39.94;99585.44;5069706;28;20035;-71
2023/12/11 00:40:50;;;;;;;1.23;0.90;;;;;;;20.74;39.42;99587.06;5079934;28;20028;-71
2023/12/11 00:43:18;;;;;;;2.13;1.38;;;;;;;20.73;39.59;99580.13;5036365;28;20031;-71
2023/12/11 00:45:44;;;;;;;1.38;0.85;;;;;;;20.71;39.60;99578.75;5079361;28;20035;-71
2023/12/11 00:48:09;;;;;;;2.45;1.40;;;;;;;20.70;39.45;99579.78;5013142;28;20117;-71
2023/12/11 00:50:35;;;;;;;1.85;1.48;;;;;;;20.72;39.69;99589.09;5059166;28;20032;-71
2023/12/11 00:53:00;;;;;;;2.50;1.10;;;;;;;20.72;39.42;99569.78;5024943;28;20113;-71
2023/12/11 00:55:26;;;;;;;2.13;0.95;;;;;;;20.73;39.56;99579.34;5084173;28;20481;-70
2023/12/11 00:57:51;;;;;;;1.67;1.00;;;;;;;20.72;39.50;99578.53;5027651;28;20712;-70
2023/12/11 01:00:17;;;;;;;2.00;1.02;;;;;;;20.68;39.72;99576.53;5080344;28;20471;-71
2023/12/11 01:02:42;;;;;;;2.70;1.42;;;;;;;20.69;39.41;99570.22;5025463;28;20039;-71
2023/12/11 01:05:09;;;;;;;3.05;1.52;;;;;;;20.72;39.96;99561.84;5078828;28;20044;-72
2023/12/11 01:07:35;;;;;;;1.42;0.98;;;;;;;20.72;39.57;99578.53;5013993;28;20492;-71
2023/12/11 01:10:02;;;;;;;2.03;1.30;;;;;;;20.71;39.55;99576.09;5046098;28;20028;-71
2023/12/11 01:12:28;;;;;;;2.20;1.27;;;;;;;20.55;39.55;99550.97;5046948;28;20335;-71
2023/12/11 01:14:54;;;;;;;2.08;1.00;;;;;;;20.71;39.62;99570.81;5029736;28;20160;-71
2023/12/11 01:17:19;;;;;;;2.53;1.40;;;;;;;20.71;39.63;99573.44;5070207;28;20114;-71
2023/12/11 01:19:45;;;;;;;1.95;1.25;;;;;;;20.70;39.36;99572.63;5025332;28;20043;-71
2023/12/11 01:22:11;;;;;;;3.20;1.48;;;;;;;20.62;39.53;99564.94;5069846;28;20040;-70
2023/12/11 01:24:37;;;;;;;2.08;1.20;;;;;;;20.69;39.72;99572.84;5019339;28;20043;-71
2023/12/11 01:27:03;;;;;;;2.00;1.35;;;;;;;20.62;39.58;99564.94;5070128;28;20043;-71
2023/12/11 01:29:28;;;;;;;3.00;1.38;;;;;;;20.68;39.63;99576.53;5033083;28;20035;-71
2023/12/11 01:31:54;;;;;;;2.60;1.80;;;;;;;20.67;39.48;99581.00;5082619;28;20365;-71
2023/12/11 01:34:20;;;;;;;2.38;1.40;;;;;;;20.67;39.55;99569.63;5033640;28;20042;-71
2023/12/11 01:36:45;;;;;;;2.03;1.40;;;;;;;20.67;39.49;99572.25;5065823;28;20044;-73
2023/12/11 01:39:11;;;;;;;3.03;1.90;;;;;;;20.45;39.73;99540.88;5034400;28;20057;-71
2023/12/11 01:41:36;;;;;;;4.93;1.60;;;;;;;20.67;39.42;99567.78;5079445;28;20039;-71
2023/12/11 01:44:03;;;;;;;2.40;1.60;;;;;;;20.60;39.60;99550.34;5035086;28;20384;-71
2023/12/11 01:46:30;;;;;;;2.97;1.33;;;;;;;20.63;39.45;99560.47;5066931;28;20531;-71
2023/12/11 01:48:56;;;;;;;3.40;1.67;;;;;;;20.60;39.64;99548.50;5077112;28;20032;-71
2023/12/11 01:51:22;;;;;;;2.13;1.30;;;;;;;20.59;39.65;99535.50;5038180;28;21046;-71
2023/12/11 01:53:50;;;;;;;3.10;1.33;;;;;;;20.65;39.50;99545.22;5081928;28;20028;-73
2023/12/11 01:56:21;;;;;;;3.60;1.73;;;;;;;20.56;39.62;99544.66;5037965;28;20131;-71
2023/12/11 01:58:48;;;;;;;4.07;1.92;;;;;;;20.63;39.57;99548.06;5083166;28;20027;-71
2023/12/11 02:01:14;;;;;;;3.53;1.52;;;;;;;20.63;39.41;99548.06;5036816;28;20039;-71
2023/12/11 02:03:40;;;;;;;2.38;1.38;;;;;;;20.55;39.54;99543.06;5089974;28;20040;-71
2023/12/11 02:06:06;;;;;;;2.80;1.25;;;;;;;20.63;39.59;99547.25;5027829;28;20716;-71
2023/12/11 02:08:32;;;;;;;3.05;1.58;;;;;;;20.61;39.50;99546.66;5085402;28;20114;-71
2023/12/11 02:10:58;;;;;;;3.00;1.50;;;;;;;20.57;39.53;99541.00;5020088;28;20452;-70
2023/12/11 02:13:24;;;;;;;2.45;1.35;;;;;;;20.60;39.50;99537.09;5076331;28;20057;-71
2023/12/11 02:15:51;;;;;;;3.17;1.63;;;;;;;20.59;39.53;99531.00;5064095;28;20044;-72
2023/12/11 02:18:17;;;;;;;3.25;1.52;;;;;;;20.61;39.37;99531.59;5066299;28;20099;-74
2023/12/11 02:20:46;;;;;;;3.42;1.48;;;;;;;20.60;39.64;99537.91;5081878;28;20036;-71
2023/12/11 02:23:43;;;;;;;2.67;1.40;;;;;;;20.56;39.53;99520.06;5033043;28;20044;-71
2023/12/11 02:26:16;;;;;;;2.97;1.50;;;;;;;20.59;39.67;99528.38;5038322;28;22322;-71
2023/12/11 02:28:42;;;;;;;3.28;1.58;;;;;;;20.58;39.61;99512.72;5077117;28;20043;-71
2023/12/11 02:31:08;;;;;;;3.10;1.55;;;;;;;20.57;39.43;99503.97;4998525;28;20046;-71
2023/12/11 02:33:34;;;;;;;2.67;1.35;;;;;;;20.60;39.61;99513.31;5058224;28;20036;-71
2023/12/11 02:36:00;;;;;;;2.70;1.27;;;;;;;20.61;39.68;99525.50;5034734;28;21331;-74
2023/12/11 02:38:26;;;;;;;4.40;1.38;;;;;;;20.60;39.53;99500.88;5079915;28;20035;-71
2023/12/11 02:40:52;;;;;;;2.90;1.30;;;;;;;20.59;39.67;99514.31;5061348;28;20043;-71
2023/12/11 02:43:18;;;;;;;2.90;1.45;;;;;;;20.59;39.54;99498.47;5068985;28;20039;-74
2023/12/11 02:45:44;;;;;;;2.45;1.38;;;;;;;20.55;39.57;99492.81;5063297;28;20361;-73
2023/12/11 02:48:10;;;;;;;3.58;1.65;;;;;;;20.56;39.64;99485.69;5026965;28;20031;-73
2023/12/11 02:50:36;;;;;;;2.35;1.45;;;;;;;20.57;39.78;99489.94;5082824;28;20554;-73
2023/12/11 02:53:03;;;;;;;2.30;1.42;;;;;;;20.45;39.54;99464.19;5030505;28;20024;-71
2023/12/11 02:55:28;;;;;;;2.35;1.58;;;;;;;20.55;39.67;99471.66;5090368;28;20094;-73
2023/12/11 02:57:59;;;;;;;2.10;1.20;;;;;;;20.56;39.69;99477.75;5034954;28;20847;-73
2023/12/11 03:00:26;;;;;;;2.40;1.50;;;;;;;20.58;39.58;99467.75;5089688;28;20040;-73
2023/12/11 03:02:51;;;;;;;2.50;1.45;;;;;;;20.51;39.57;99462.53;5032163;28;20048;-72
2023/12/11 03:05:17;;;;;;;3.10;1.38;;;;;;;20.46;39.62;99463.16;5063665;28;20101;-73
2023/12/11 03:07:42;;;;;;;3.50;1.63;;;;;;;20.55;39.70;99466.34;5031038;28;21051;-73
2023/12/11 03:10:08;;;;;;;2.42;1.35;;;;;;;20.55;39.35;99461.06;5072795;28;20048;-73
2023/12/11 03:12:34;;;;;;;1.80;1.30;;;;;;;20.56;39.47;99456.59;5027754;28;21217;-72
2023/12/11 03:15:00;;;;;;;2.60;1.40;;;;;;;20.56;39.77;99459.22;5088052;28;20105;-71
2023/12/11 03:17:26;;;;;;;2.38;1.40;;;;;;;20.41;39.57;99436.56;5053936;28;20464;-70
2023/12/11 03:19:53;;;;;;;3.10;1.80;;;;;;;20.44;39.68;99428.19;5039089;28;20055;-72
2023/12/11 03:22:19;;;;;;;2.53;1.33;;;;;;;20.53;39.66;99444.59;5054112;28;20033;-71
2023/12/11 03:24:46;;;;;;;3.17;1.55;;;;;;;20.47;39.76;99443.66;5044031;28;20063;-72
2023/12/11 03:27:11;;;;;;;2.33;1.25;;;;;;;20.54;39.68;99432.19;5075653;28;20036;-72
2023/12/11 03:29:37;;;;;;;3.03;1.50;;;;;;;20.48;39.60;99432.03;5029779;28;20055;-71
2023/12/11 03:32:03;;;;;;;2.70;1.48;;;;;;;20.49;39.72;99430.22;5067446;28;20074;-71
2023/12/11 03:34:28;;;;;;;3.22;1.35;;;;;;;20.52;39.66;99424.47;5024353;28;20667;-73
2023/12/11 03:36:54;;;;;;;2.78;1.70;;;;;;;20.47;39.82;99424.34;5060351;28;20504;-71
2023/12/11 03:39:19;;;;;;;2.38;1.55;;;;;;;20.52;39.58;99432.41;5012338;28;20043;-71
2023/12/11 03:41:45;;;;;;;2.85;1.25;;;;;;;20.50;39.63;99431.81;5062110;28;20457;-71
2023/12/11 03:44:11;;;;;;;1.83;1.27;;;;;;;20.45;39.59;99421.06;5030501;28;20043;-74
2023/12/11 03:46:36;;;;;;;2.65;1.58;;;;;;;20.48;39.57;99428.59;5076573;28;20162;-71
2023/12/11 03:49:02;;;;;;;4.88;2.08;;;;;;;20.45;39.68;99415.78;5029063;28;20519;-71
2023/12/11 03:51:27;;;;;;;2.38;1.63;;;;;;;20.48;39.64;99428.59;5060388;28;20786;-71
2023/12/11 03:53:53;;;;;;;1.98;1.27;;;;;;;20.43;39.78;99416.00;5083520;28;20032;-71
2023/12/11 03:56:19;;;;;;;4.07;1.85;;;;;;;20.44;39.68;99432.69;5081097;28;20497;-71
2023/12/11 03:58:44;;;;;;;3.83;1.63;;;;;;;20.48;39.64;99421.47;5028913;28;20035;-71
2023/12/11 04:01:10;;;;;;;3.72;1.75;;;;;;;20.47;39.67;99426.97;5085497;28;20045;-71
2023/12/11 04:03:36;;;;;;;3.88;1.73;;;;;;;20.39;39.78;99384.91;5031155;28;20036;-71
2023/12/11 04:06:02;;;;;;;3.35;1.65;;;;;;;20.38;39.66;99401.78;5084294;28;20036;-71
2023/12/11 04:08:27;;;;;;;3.08;1.52;;;;;;;20.46;39.76;99417.41;5003266;28;20047;-71
2023/12/11 04:10:53;;;;;;;4.95;1.50;;;;;;;20.39;39.96;99404.22;5086748;28;20059;-71
2023/12/11 04:13:18;;;;;;;4.82;1.48;;;;;;;20.46;39.66;99404.97;5032128;28;20044;-71
2023/12/11 04:15:44;;;;;;;1.52;1.10;;;;;;;20.42;39.67;99395.88;5067755;28;20101;-71
2023/12/11 04:18:09;;;;;;;3.15;1.63;;;;;;;20.42;39.82;99406.44;5031623;28;20048;-71
2023/12/11 04:20:35;;;;;;;3.75;1.55;;;;;;;20.44;39.64;99395.66;5080890;28;20521;-71
2023/12/11 04:23:01;;;;;;;3.92;1.52;;;;;;;20.44;39.62;99399.09;5026885;28;20035;-73
2023/12/11 04:25:26;;;;;;;3.40;1.63;;;;;;;20.46;39.65;99412.91;5079010;28;20032;-71
2023/12/11 04:27:52;;;;;;;2.67;1.48;;;;;;;20.29;39.72;99381.94;5032706;28;20035;-71
2023/12/11 04:30:17;;;;;;;3.45;1.60;;;;;;;20.38;39.74;99393.88;5063695;28;20036;-71
2023/12/11 04:32:43;;;;;;;2.92;1.70;;;;;;;20.46;39.77;99397.06;4997325;28;20127;-71
2023/12/11 04:35:08;;;;;;;2.63;1.50;;;;;;;20.47;39.73;99396.06;5086665;28;20475;-71
2023/12/11 04:37:34;;;;;;;2.08;1.17;;;;;;;20.43;39.79;99394.84;5028652;28;20036;-71
2023/12/11 04:39:59;;;;;;;2.65;1.55;;;;;;;20.42;39.76;99400.34;5066860;28;20044;-71
2023/12/11 04:42:25;;;;;;;3.90;1.98;;;;;;;20.42;39.80;99390.59;5032392;28;20042;-73
2023/12/11 04:44:50;;;;;;;3.50;1.85;;;;;;;20.46;39.76;99391.75;5077547;28;20040;-71
2023/12/11 04:47:16;;;;;;;3.03;1.77;;;;;;;20.44;39.79;99393.81;5031341;28;20036;-71
2023/12/11 04:49:42;;;;;;;3.05;1.55;;;;;;;20.35;39.71;99352.81;5069758;28;20028;-71
2023/12/11 04:52:08;;;;;;;3.03;1.40;;;;;;;20.37;39.79;99355.22;5031553;28;20114;-74
2023/12/11 04:54:33;;;;;;;1.95;1.23;;;;;;;20.40;39.65;99374.09;5088035;28;20485;-71
2023/12/11 04:56:59;;;;;;;4.53;1.65;;;;;;;20.42;39.70;99369.44;5071775;28;20031;-71
2023/12/11 04:59:24;;;;;;;3.05;1.50;;;;;;;20.33;39.82;99365.44;5088338;28;20051;-71
2023/12/11 05:01:50;;;;;;;2.05;1.50;;;;;;;20.33;39.73;99369.91;5014210;28;20372;-71
2023/12/11 05:04:16;;;;;;;3.05;1.83;;;;;;;20.39;39.72;99372.50;5081807;28;20032;-71
2023/12/11 05:06:41;;;;;;;2.92;1.50;;;;;;;20.23;39.78;99331.56;5035454;28;20059;-71
2023/12/11 05:09:07;;;;;;;3.78;1.92;;;;;;;20.38;39.74;99362.94;5068997;28;20040;-70
2023/12/11 05:11:33;;;;;;;3.38;1.67;;;;;;;20.40;39.85;99374.09;5034371;28;20039;-74
2023/12/11 05:13:58;;;;;;;3.47;1.70;;;;;;;20.36;39.79;99369.47;5072131;28;20028;-72
2023/12/11 05:16:24;;;;;;;3.33;1.77;;;;;;;20.34;39.89;99364.41;5033149;28;20449;-71
2023/12/11 05:18:49;;;;;;;2.88;1.73;;;;;;;20.41;39.73;99364.38;5052738;28;20067;-76
2023/12/11 05:21:15;;;;;;;4.93;1.88;;;;;;;20.42;39.70;99366.00;5025051;28;20047;-71
2023/12/11 05:23:40;;;;;;;3.97;1.80;;;;;;;20.41;39.70;99365.19;5070056;28;20063;-71
2023/12/11 05:26:06;;;;;;;4.60;1.83;;;;;;;20.39;39.99;99356.63;4996407;28;20087;-73
2023/12/11 05:28:31;;;;;;;2.88;1.60;;;;;;;20.37;40.00;99353.41;5072882;28;20044;-71
2023/12/11 05:30:57;;;;;;;3.65;1.65;;;;;;;20.40;39.64;99357.44;5016809;28;20066;-71
2023/12/11 05:33:23;;;;;;;3.97;1.58;;;;;;;20.39;39.85;99361.09;5068140;28;20048;-71
2023/12/11 05:35:48;;;;;;;3.95;1.90;;;;;;;20.33;39.84;99354.88;4998027;28;20129;-72
2023/12/11 05:38:14;;;;;;;3.22;1.42;;;;;;;20.36;39.82;99359.72;5058341;28;20046;-71
2023/12/11 05:40:39;;;;;;;2.45;1.40;;;;;;;20.40;39.73;99362.72;5027724;28;20043;-74
2023/12/11 05:43:05;;;;;;;3.60;1.40;;;;;;;20.40;39.83;99363.53;5085417;28;20036;-73
2023/12/11 05:45:30;;;;;;;3.08;1.48;;;;;;;20.37;39.78;99353.41;5028093;28;20430;-71
2023/12/11 05:47:56;;;;;;;3.53;1.70;;;;;;;20.38;39.81;99357.66;5064733;28;20027;-71
2023/12/11 05:50:22;;;;;;;3.03;1.17;;;;;;;20.38;39.78;99352.38;5026795;28;20047;-69
2023/12/11 05:52:48;;;;;;;3.15;1.75;;;;;;;20.37;40.00;99356.03;5074261;28;20032;-70
2023/12/11 05:55:14;;;;;;;2.85;1.70;;;;;;;20.36;39.84;99351.78;5070110;28;20032;-70
2023/12/11 05:57:39;;;;;;;3.53;1.90;;;;;;;20.38;39.83;99349.72;5052810;28;20089;-69
2023/12/11 06:00:06;;;;;;;4.28;1.50;;;;;;;20.38;39.82;99347.09;5090775;28;20032;-73
2023/12/11 06:02:31;;;;;;;3.58;1.77;;;;;;;20.37;39.98;99348.13;5037066;28;20105;-73
2023/12/11 06:04:57;;;;;;;3.10;1.75;;;;;;;20.34;39.92;99329.25;5062192;28;20533;-74
2023/12/11 06:07:22;;;;;;;3.35;1.75;;;;;;;20.34;39.95;99335.34;5086934;28;20085;-75
2023/12/11 06:09:48;;;;;;;3.72;1.60;;;;;;;20.38;39.86;99335.69;5029372;28;20528;-74
2023/12/11 06:12:13;;;;;;;2.85;1.50;;;;;;;20.42;39.85;99340.34;5077117;28;20028;-76
2023/12/11 06:14:42;;;;;;;3.28;1.80;;;;;;;20.42;39.91;99350.94;5019197;28;20944;-73
2023/12/11 06:17:08;;;;;;;3.25;1.63;;;;;;;20.35;39.95;99339.59;5090832;28;20538;-75
2023/12/11 06:19:34;;;;;;;4.90;1.70;;;;;;;20.23;39.90;99315.72;5034470;28;22882;-77
2023/12/11 06:22:00;;;;;;;2.95;1.50;;;;;;;20.37;39.95;99345.47;5067097;28;20047;-74
2023/12/11 06:24:26;;;;;;;3.88;1.70;;;;;;;20.41;39.99;99346.66;5034131;28;20071;-73
2023/12/11 06:26:51;;;;;;;2.13;1.35;;;;;;;20.41;39.94;99340.56;5050330;28;20126;-75
2023/12/11 06:29:17;;;;;;;3.25;1.23;;;;;;;20.38;39.90;99343.63;5077207;28;20039;-74
2023/12/11 06:31:43;;;;;;;4.15;1.60;;;;;;;20.39;39.97;99339.97;5027283;28;20048;-74
2023/12/11 06:34:08;;;;;;;2.17;1.45;;;;;;;20.40;39.96;99346.88;5068443;28;20032;-73
2023/12/11 06:36:34;;;;;;;2.70;1.55;;;;;;;20.35;39.82;99330.84;5025338;28;20051;-74
2023/12/11 06:38:59;;;;;;;2.90;1.52;;;;;;;20.34;40.04;99337.16;5087916;28;20036;-74
2023/12/11 06:41:25;;;;;;;2.28;1.55;;;;;;;20.44;39.89;99340.94;5011839;28;20040;-75
2023/12/11 06:43:54;;;;;;;3.17;1.58;;;;;;;20.41;39.98;99345.88;5088020;28;20039;-73
2023/12/11 06:46:20;;;;;;;2.90;1.63;;;;;;;20.28;39.93;99320.31;5032096;28;20343;-73
2023/12/11 06:48:46;;;;;;;5.18;1.95;;;;;;;20.41;39.94;99328.16;5062778;28;20024;-76
2023/12/11 06:51:15;;;;;;;2.00;1.60;;;;;;;20.41;40.09;99330.81;5016091;28;20594;-76
2023/12/11 06:53:40;;;;;;;2.80;1.70;;;;;;;20.42;39.90;99335.06;5091553;28;20047;-73
2023/12/11 06:56:06;;;;;;;3.75;1.38;;;;;;;20.40;40.00;99331.00;5034242;28;20047;-75
2023/12/11 06:58:32;;;;;;;2.95;1.65;;;;;;;20.35;39.87;99321.09;5068980;28;20505;-73
2023/12/11 07:00:58;;;;;;;3.53;1.98;;;;;;;20.23;40.04;99301.69;5024761;28;20048;-76
2023/12/11 07:03:24;;;;;;;2.53;1.05;;;;;;;20.42;39.97;99335.06;5086885;28;20036;-75
2023/12/11 07:05:50;;;;;;;2.58;1.67;;;;;;;20.42;39.88;99329.78;4994488;28;20477;-77
2023/12/11 07:08:15;;;;;;;2.75;1.52;;;;;;;20.41;39.85;99335.28;5083522;28;20043;-74
2023/12/11 07:10:41;;;;;;;2.75;1.63;;;;;;;20.42;40.08;99334.25;5088076;28;20105;-74
2023/12/11 07:13:06;;;;;;;3.20;1.90;;;;;;;20.41;39.92;99330.00;5042748;28;20051;-76
2023/12/11 07:15:32;;;;;;;2.58;1.30;;;;;;;20.42;40.07;99332.41;5047039;28;20043;-74
2023/12/11 07:17:57;;;;;;;2.70;1.50;;;;;;;20.44;39.89;99332.19;5008553;28;20056;-74
2023/12/11 07:20:23;;;;;;;3.58;1.75;;;;;;;20.43;39.95;99333.22;5061067;28;20047;-72
2023/12/11 07:22:51;;;;;;;2.63;1.23;;;;;;;20.43;40.10;99330.59;5030226;28;20448;-75
2023/12/11 07:25:17;;;;;;;1.98;1.25;;;;;;;20.40;39.67;99320.41;5082708;28;20043;-75
2023/12/11 07:27:45;;;;;;;3.78;1.70;;;;;;;20.42;40.14;99328.97;5042961;28;20126;-74
2023/12/11 07:30:11;;;;;;;2.35;1.27;;;;;;;20.40;40.05;99318.59;5082895;28;20108;-73
2023/12/11 07:32:37;;;;;;;3.08;1.67;;;;;;;20.57;39.89;99328.63;5038730;28;20043;-73
2023/12/11 07:35:03;;;;;;;2.85;1.30;;;;;;;20.84;39.10;99329.94;5082680;28;20058;-73
2023/12/11 07:37:29;;;;;;;2.50;1.48;;;;;;;21.06;39.00;99323.13;5025977;28;20048;-72
2023/12/11 07:39:55;;;;;;;1.27;0.95;;;;;;;21.19;38.80;99324.00;5078469;28;20104;-75
2023/12/11 07:42:20;;;;;;;3.33;1.23;;;;;;;21.16;39.04;99327.06;5028370;28;20071;-73
2023/12/11 07:44:46;;;;;;;3.50;1.50;;;;;;;21.12;39.07;99324.06;5082590;28;20044;-74
2023/12/11 07:47:11;;;;;;;2.25;1.20;;;;;;;21.06;39.03;99319.69;5025282;28;20043;-73
2023/12/11 07:49:37;;;;;;;2.28;1.30;;;;;;;21.02;39.07;99318.53;5079481;28;20111;-73
2023/12/11 07:52:03;;;;;;;4.10;1.75;;;;;;;20.98;39.29;99315.50;5022645;28;20033;-76
2023/12/11 07:54:28;;;;;;;2.17;1.10;;;;;;;21.02;39.29;99329.91;5097182;28;20108;-71
2023/12/11 07:56:54;;;;;;;1.98;1.30;;;;;;;20.94;39.43;99316.16;5013189;28;20040;-76
2023/12/11 07:59:20;;;;;;;2.00;1.30;;;;;;;20.99;39.54;99325.03;5071751;28;20298;-74
2023/12/11 08:01:45;;;;;;;2.80;1.38;;;;;;;20.91;39.65;99328.00;5035097;28;20040;-73
2023/12/11 08:04:12;;;;;;;2.45;1.30;;;;;;;20.83;39.64;99324.88;5068630;28;20170;-72
2023/12/11 08:06:41;;;;;;;2.08;1.02;;;;;;;20.89;39.74;99331.91;5024904;28;20029;-74
2023/12/11 08:09:08;;;;;;;1.93;1.00;;;;;;;20.85;39.80;99331.56;5068041;28;20035;-73
2023/12/11 08:11:34;;;;;;;2.80;1.45;;;;;;;20.86;39.76;99321.78;5082267;28;20462;-74
2023/12/11 08:14:00;;;;;;;2.97;1.35;;;;;;;20.85;39.63;99325.44;5012164;28;20877;-71
2023/12/11 08:16:25;;;;;;;3.30;1.30;;;;;;;20.87;39.76;99324.19;5065445;28;20081;-74
2023/12/11 08:18:51;;;;;;;2.65;1.63;;;;;;;20.85;39.80;99326.25;5036374;28;20048;-73
2023/12/11 08:21:17;;;;;;;2.03;1.35;;;;;;;20.84;39.81;99321.19;5086204;28;20024;-74
2023/12/11 08:23:44;;;;;;;2.60;1.40;;;;;;;20.81;39.86;99319.78;5035283;28;20036;-73
2023/12/11 08:26:10;;;;;;;2.80;1.33;;;;;;;20.84;39.86;99322.00;5071589;28;20028;-74
2023/12/11 08:28:36;;;;;;;2.22;1.25;;;;;;;20.75;39.84;99313.53;5047498;28;20044;-74
2023/12/11 08:31:03;;;;;;;3.38;1.38;;;;;;;20.82;39.72;99318.75;5066341;28;20082;-76
2023/12/11 08:33:29;;;;;;;2.25;1.35;;;;;;;20.83;39.54;99323.03;5073468;28;20063;-72
2023/12/11 08:35:55;;;;;;;2.17;1.00;;;;;;;20.75;39.91;99316.19;5035944;28;20044;-74
2023/12/11 08:38:23;;;;;;;1.75;1.00;;;;;;;20.81;39.88;99322.41;5071081;28;20038;-74
2023/12/11 08:40:49;;;;;;;2.10;1.17;;;;;;;20.81;39.80;99333.81;5043284;28;20105;-74
2023/12/11 08:43:16;;;;;;;2.55;1.20;;;;;;;20.81;39.85;99333.81;5087692;28;20048;-76
2023/12/11 08:45:42;;;;;;;3.08;1.35;;;;;;;20.84;39.78;99345.00;5034909;28;20078;-76
2023/12/11 08:48:08;;;;;;;1.65;1.20;;;;;;;20.81;39.57;99347.03;5085926;28;20048;-75
2023/12/11 08:50:33;;;;;;;1.98;1.10;;;;;;;20.81;39.78;99335.66;5018596;28;20097;-73
2023/12/11 08:53:00;;;;;;;2.33;1.15;;;;;;;20.80;39.90;99347.25;5064663;28;20054;-75
2023/12/11 08:55:30;;;;;;;2.15;1.20;;;;;;;20.81;39.90;99349.69;5046519;28;20388;-74
2023/12/11 08:57:55;;;;;;;2.50;1.30;;;;;;;20.79;39.76;99353.59;5073361;28;20553;-75
2023/12/11 09:00:21;;;;;;;2.63;1.23;;;;;;;20.80;39.93;99357.84;5035752;28;20032;-75
2023/12/11 09:02:47;;;;;;;2.00;1.23;;;;;;;20.81;39.70;99365.56;5089520;28;20109;-76
2023/12/11 09:05:13;;;;;;;2.38;1.05;;;;;;;20.78;39.72;99368.66;5038737;28;20040;-74
2023/12/11 09:07:38;;;;;;;1.17;0.77;;;;;;;20.76;39.73;99359.31;5074865;28;20062;-74
2023/12/11 09:10:07;;;;;;;2.38;1.05;;;;;;;20.78;39.81;99370.50;5026186;28;20036;-77
2023/12/11 09:12:32;;;;;;;1.17;1.08;;;;;;;20.82;39.80;99379.59;5078384;28;20130;-76
2023/12/11 09:14:58;;;;;;;1.60;0.90;;;;;;;20.60;39.87;99351.97;5096087;28;20051;-70
2023/12/11 09:17:23;;;;;;;0.63;0.57;;;;;;;20.65;39.65;99366.16;5017794;28;20048;-76
2023/12/11 09:19:49;;;;;;;1.67;0.80;;;;;;;20.80;39.84;99393.03;5089407;28;20345;-74
2023/12/11 09:22:14;;;;;;;1.60;1.05;;;;;;;20.74;39.67;99386.00;5035735;28;20053;-74
2023/12/11 09:24:40;;;;;;;2.05;1.10;;;;;;;20.77;40.25;99397.97;5034576;28;21107;-76
2023/12/11 09:27:07;;;;;;;2.30;1.02;;;;;;;20.76;39.74;99397.16;5013642;28;20625;-74
2023/12/11 09:29:33;;;;;;;1.63;1.10;;;;;;;20.79;39.65;99414.44;5081449;28;20052;-72
2023/12/11 09:31:59;;;;;;;1.38;0.88;;;;;;;20.84;39.52;99421.72;5022770;28;20028;-75
2023/12/11 09:34:25;;;;;;;1.88;0.90;;;;;;;20.83;39.54;99426.22;5082142;28;20041;-75
2023/12/11 09:36:50;;;;;;;1.35;1.05;;;;;;;20.83;39.79;99431.50;5016281;28;20052;-74
2023/12/11 09:39:16;;;;;;;1.90;0.95;;;;;;;20.80;39.60;99429.28;5085692;28;20040;-77
2023/12/11 09:41:43;;;;;;;1.17;0.98;;;;;;;20.82;39.69;99443.09;5033803;28;20043;-73
2023/12/11 09:44:09;;;;;;;2.30;1.20;;;;;;;20.80;39.84;99439.84;5082565;28;20047;-73
2023/12/11 09:46:49;;;;;;;1.10;0.68;;;;;;;20.79;39.75;99452.28;5038017;28;20609;-75
2023/12/11 09:49:16;;;;;;;1.27;0.70;;;;;;;20.79;39.60;99465.50;5082147;28;20044;-73
2023/12/11 09:51:42;;;;;;;1.75;1.25;;;;;;;20.84;39.51;99470.16;5016072;28;20097;-74
2023/12/11 09:54:08;;;;;;;1.38;0.90;;;;;;;20.83;39.81;99478.31;5064194;28;20044;-72
2023/12/11 09:56:34;;;;;;;1.80;0.98;;;;;;;20.82;39.57;99472.19;5016122;28;20032;-75
2023/12/11 09:59:02;;;;;;;2.15;0.85;;;;;;;20.78;39.64;99479.75;5046260;28;20098;-74
2023/12/11 10:01:28;;;;;;;1.55;0.93;;;;;;;20.83;39.83;99486.25;5013380;28;20528;-73
2023/12/11 10:03:54;;;;;;;1.25;0.93;;;;;;;20.65;39.66;99461.41;5088398;28;20083;-75
2023/12/11 10:06:20;;;;;;;1.58;0.90;;;;;;;20.81;39.49;99503.13;5032839;28;20048;-71
2023/12/11 10:08:47;;;;;;;1.45;0.93;;;;;;;20.83;39.69;99502.13;5047363;28;20040;-71
2023/12/11 10:11:17;;;;;;;2.15;0.80;;;;;;;20.79;39.85;99499.09;5032150;28;20468;-73
2023/12/11 10:13:43;;;;;;;1.75;1.20;;;;;;;20.83;39.69;99494.19;5079478;28;20114;-73
2023/12/11 10:16:30;;;;;;;1.40;1.10;;;;;;;21.06;39.45;99520.84;5033611;28;20120;-73
2023/12/11 10:18:56;;;;;;;1.10;0.75;;;;;;;21.05;39.09;99516.56;5082888;28;20055;-72
2023/12/11 10:21:24;;;;;;;1.45;0.93;;;;;;;21.08;39.22;99532.00;5047155;28;20035;-75
2023/12/11 10:24:07;;;;;;;1.38;1.10;;;;;;;21.12;39.32;99534.00;5082803;28;20479;-73
2023/12/11 10:26:35;;;;;;;1.08;0.80;;;;;;;21.10;39.47;99546.63;5013728;28;20055;-73
2023/12/11 10:29:26;;;;;;;1.77;0.68;;;;;;;21.08;39.52;99555.81;5064773;28;20048;-74
2023/12/11 10:32:00;;;;;;;1.13;0.90;;;;;;;21.04;39.51;99568.69;5039142;28;20032;-70
2023/12/11 10:34:54;;;;;;;1.55;0.73;;;;;;;21.01;39.54;99574.44;5086158;28;20042;-77
2023/12/11 10:37:30;;;;;;;1.13;0.68;;;;;;;21.01;39.42;99578.91;5004730;28;20062;-72
2023/12/11 10:39:56;;;;;;;1.00;0.80;;;;;;;20.99;39.45;99579.09;5083147;28;20089;-75
2023/12/11 10:42:22;;;;;;;1.23;0.93;;;;;;;21.00;39.68;99604.53;5031049;28;20040;-73
2023/12/11 10:44:49;;;;;;;1.67;0.88;;;;;;;21.03;39.75;99605.97;5080222;28;20792;-74
2023/12/11 10:47:15;;;;;;;1.70;0.80;;;;;;;21.04;39.49;99618.97;5027532;28;20127;-73
2023/12/11 10:49:41;;;;;;;2.00;1.10;;;;;;;21.04;39.50;99618.97;5085617;28;20524;-73
2023/12/11 10:52:07;;;;;;;1.27;0.93;;;;;;;21.02;39.60;99623.69;5032509;28;20346;-74
2023/12/11 10:54:37;;;;;;;0.82;0.75;;;;;;;20.93;39.45;99618.88;5083990;28;20031;-72
2023/12/11 10:57:07;;;;;;;1.45;0.80;;;;;;;20.96;39.59;99613.13;5044029;28;20050;-73
2023/12/11 10:59:34;;;;;;;;;;;;;;;21.02;39.58;99628.16;5089685;28;20047;-75
2023/12/11 11:02:02;;;;;;;1.58;1.00;;;;;;;21.00;39.48;99636.28;5044705;28;19920;-70
2023/12/11 11:04:33;;;;;;;1.50;0.60;;;;;;;20.96;39.71;99627.16;5078274;28;20051;-73
2023/12/11 11:07:18;;;;;;;1.40;0.80;;;;;;;21.01;39.61;99645.88;5030966;27;20566;-76
2023/12/11 11:09:58;;;;;;;1.52;0.80;;;;;;;21.00;39.68;99654.00;5092617;28;20043;-75
2023/12/11 11:12:49;;;;;;;2.15;0.70;;;;;;;21.00;39.58;99656.66;5046370;27;20047;-71
2023/12/11 11:15:25;;;;;;;2.42;0.98;;;;;;;21.00;39.46;99669.88;5106335;27;20264;-73
2023/12/11 11:18:09;;;;;;;1.83;0.98;;;;;;;20.99;39.79;99677.03;5073344;27;20089;-77
2023/12/11 11:20:39;;;;;;;0.82;0.57;;;;;;;20.99;39.67;99682.31;5093795;28;20118;-74
2023/12/11 11:23:13;;;;;;;1.00;0.60;;;;;;;21.00;39.58;99683.13;5052521;27;20039;-78
2023/12/11 11:25:39;;;;;;;1.05;0.68;;;;;;;20.93;39.55;99685.03;5108749;28;20106;-73
2023/12/11 11:28:06;;;;;;;1.30;0.80;;;;;;;20.98;39.72;99690.47;5043943;27;20058;-77
2023/12/11 11:30:46;;;;;;;1.20;0.82;;;;;;;20.99;39.72;99700.03;5101856;28;20054;-76
2023/12/11 11:33:12;;;;;;;1.13;0.50;;;;;;;20.98;39.65;99709.00;5047724;27;20046;-74